Weather at Oyen Municipal Airport

Public forecast

Using degrees Celsius for public forecast. Weather courtesy of forecast.io.

Closest aviation weather report (METAR) to Oyen Municipal Airport

Closest report is Kindersley Airport, 50.3 nm (93.1 km) ENE. Retrieved 2022/06/28 23:00 UTC (45 minutes ago):

CYKY 282300Z 13012G19KT 15SM BKN240 23/11 A2999 RMK CI6 PRESFR SLP161 DENSITY ALT 3600FT

Closest aviation forecast (TAF) to Oyen Municipal Airport

Closest forecast is Medicine Hat Regional Airport, 79.5 nm (147.1 km) S. Retrieved 2022/06/28 18:57 UTC (5 hours ago):

TAF TAF CYXH 281754Z 2818/2906 07010KT P6SM FEW120 FM282100 08015G25KT P6SM BKN120 FM290000 09012KT P6SM SCT150 BECMG 2901/2903 16008KT FM290500 20012KT P6SM SCT120 TEMPO 2905/2906 VRB20G30KT P6SM VCTS BKN110CB RMK NXT FCST BY 290000Z